sensor_id;sensor_type;location;lat;lon;timestamp;P1;durP1;ratioP1;P2;durP2;ratioP2
8337;SDS011;4206;48.634;9.516;2022-10-04T00:05:37;16.20;;;6.40;;
8337;SDS011;4206;48.634;9.516;2022-10-04T00:08:16;13.73;;;6.80;;
8337;SDS011;4206;48.634;9.516;2022-10-04T00:10:48;15.70;;;7.70;;
8337;SDS011;4206;48.634;9.516;2022-10-04T00:13:25;12.37;;;6.87;;
8337;SDS011;4206;48.634;9.516;2022-10-04T00:15:55;7.50;;;6.10;;
8337;SDS011;4206;48.634;9.516;2022-10-04T00:18:26;7.87;;;6.10;;
8337;SDS011;4206;48.634;9.516;2022-10-04T00:20:56;12.27;;;6.00;;
8337;SDS011;4206;48.634;9.516;2022-10-04T00:26:10;8.50;;;5.57;;
8337;SDS011;4206;48.634;9.516;2022-10-04T00:31:11;5.40;;;4.67;;
8337;SDS011;4206;48.634;9.516;2022-10-04T00:33:38;10.20;;;5.63;;
8337;SDS011;4206;48.634;9.516;2022-10-04T00:36:43;7.00;;;4.93;;
8337;SDS011;4206;48.634;9.516;2022-10-04T00:44:06;7.63;;;5.30;;
8337;SDS011;4206;48.634;9.516;2022-10-04T00:46:35;10.33;;;4.77;;
8337;SDS011;4206;48.634;9.516;2022-10-04T00:49:05;7.93;;;5.30;;
8337;SDS011;4206;48.634;9.516;2022-10-04T00:54:22;7.20;;;4.20;;
8337;SDS011;4206;48.634;9.516;2022-10-04T00:56:54;7.83;;;4.63;;
8337;SDS011;4206;48.634;9.516;2022-10-04T00:59:28;7.30;;;4.30;;
8337;SDS011;4206;48.634;9.516;2022-10-04T01:01:58;5.10;;;4.30;;
8337;SDS011;4206;48.634;9.516;2022-10-04T01:04:30;7.30;;;4.40;;
8337;SDS011;4206;48.634;9.516;2022-10-04T01:06:57;8.07;;;4.50;;
8337;SDS011;4206;48.634;9.516;2022-10-04T01:09:25;6.80;;;4.53;;
8337;SDS011;4206;48.634;9.516;2022-10-04T01:11:58;6.23;;;4.47;;
8337;SDS011;4206;48.634;9.516;2022-10-04T01:14:28;8.17;;;4.63;;
8337;SDS011;4206;48.634;9.516;2022-10-04T01:16:55;6.77;;;4.60;;
8337;SDS011;4206;48.634;9.516;2022-10-04T01:21:57;7.17;;;3.80;;
8337;SDS011;4206;48.634;9.516;2022-10-04T01:24:23;9.73;;;4.70;;
8337;SDS011;4206;48.634;9.516;2022-10-04T01:26:50;8.70;;;4.50;;
8337;SDS011;4206;48.634;9.516;2022-10-04T01:29:17;8.20;;;4.60;;
8337;SDS011;4206;48.634;9.516;2022-10-04T01:31:45;5.27;;;4.30;;
8337;SDS011;4206;48.634;9.516;2022-10-04T01:34:13;4.30;;;3.43;;
8337;SDS011;4206;48.634;9.516;2022-10-04T01:36:39;6.20;;;4.50;;
8337;SDS011;4206;48.634;9.516;2022-10-04T01:39:05;6.40;;;4.20;;
8337;SDS011;4206;48.634;9.516;2022-10-04T01:41:36;6.47;;;4.73;;
8337;SDS011;4206;48.634;9.516;2022-10-04T01:44:03;6.93;;;4.60;;
8337;SDS011;4206;48.634;9.516;2022-10-04T01:46:34;7.80;;;4.60;;
8337;SDS011;4206;48.634;9.516;2022-10-04T01:49:02;10.23;;;5.30;;
8337;SDS011;4206;48.634;9.516;2022-10-04T01:51:30;8.07;;;5.20;;
8337;SDS011;4206;48.634;9.516;2022-10-04T01:53:59;9.37;;;5.20;;
8337;SDS011;4206;48.634;9.516;2022-10-04T01:56:30;7.10;;;5.30;;
8337;SDS011;4206;48.634;9.516;2022-10-04T01:58:58;8.57;;;4.40;;
8337;SDS011;4206;48.634;9.516;2022-10-04T02:01:28;8.23;;;5.17;;
8337;SDS011;4206;48.634;9.516;2022-10-04T02:04:20;8.20;;;4.83;;
8337;SDS011;4206;48.634;9.516;2022-10-04T02:06:47;8.37;;;5.53;;
8337;SDS011;4206;48.634;9.516;2022-10-04T02:09:18;9.50;;;4.77;;
8337;SDS011;4206;48.634;9.516;2022-10-04T02:11:47;8.27;;;4.77;;
8337;SDS011;4206;48.634;9.516;2022-10-04T02:14:17;7.73;;;5.33;;
8337;SDS011;4206;48.634;9.516;2022-10-04T02:16:44;9.73;;;4.87;;
8337;SDS011;4206;48.634;9.516;2022-10-04T02:19:11;7.13;;;4.40;;
8337;SDS011;4206;48.634;9.516;2022-10-04T02:21:38;6.63;;;4.17;;
8337;SDS011;4206;48.634;9.516;2022-10-04T02:24:04;7.37;;;4.67;;
8337;SDS011;4206;48.634;9.516;2022-10-04T02:26:33;5.97;;;3.83;;
8337;SDS011;4206;48.634;9.516;2022-10-04T02:28:59;5.27;;;4.27;;
8337;SDS011;4206;48.634;9.516;2022-10-04T02:31:25;5.30;;;3.90;;
8337;SDS011;4206;48.634;9.516;2022-10-04T02:34:07;4.93;;;4.30;;
8337;SDS011;4206;48.634;9.516;2022-10-04T02:36:33;6.47;;;4.67;;
8337;SDS011;4206;48.634;9.516;2022-10-04T02:39:02;7.10;;;4.47;;
8337;SDS011;4206;48.634;9.516;2022-10-04T02:41:29;7.50;;;4.77;;
8337;SDS011;4206;48.634;9.516;2022-10-04T02:43:58;5.30;;;3.50;;
8337;SDS011;4206;48.634;9.516;2022-10-04T02:46:37;6.03;;;4.30;;
8337;SDS011;4206;48.634;9.516;2022-10-04T02:49:09;6.43;;;4.00;;
8337;SDS011;4206;48.634;9.516;2022-10-04T02:54:27;6.23;;;4.80;;
8337;SDS011;4206;48.634;9.516;2022-10-04T02:56:54;6.70;;;4.40;;
8337;SDS011;4206;48.634;9.516;2022-10-04T02:59:22;7.20;;;5.20;;
8337;SDS011;4206;48.634;9.516;2022-10-04T03:01:52;10.07;;;4.80;;
8337;SDS011;4206;48.634;9.516;2022-10-04T03:04:20;6.20;;;4.50;;
8337;SDS011;4206;48.634;9.516;2022-10-04T03:06:47;7.57;;;4.83;;
8337;SDS011;4206;48.634;9.516;2022-10-04T03:09:14;9.93;;;5.57;;
8337;SDS011;4206;48.634;9.516;2022-10-04T03:11:41;9.83;;;5.57;;
8337;SDS011;4206;48.634;9.516;2022-10-04T03:14:10;8.17;;;5.90;;
8337;SDS011;4206;48.634;9.516;2022-10-04T03:16:39;7.57;;;5.17;;
8337;SDS011;4206;48.634;9.516;2022-10-04T03:19:08;6.90;;;5.50;;
8337;SDS011;4206;48.634;9.516;2022-10-04T03:21:36;8.83;;;5.50;;
8337;SDS011;4206;48.634;9.516;2022-10-04T03:24:04;9.47;;;5.40;;
8337;SDS011;4206;48.634;9.516;2022-10-04T03:29:00;9.00;;;5.33;;
8337;SDS011;4206;48.634;9.516;2022-10-04T03:31:29;7.60;;;4.57;;
8337;SDS011;4206;48.634;9.516;2022-10-04T03:33:58;7.03;;;4.30;;
8337;SDS011;4206;48.634;9.516;2022-10-04T03:36:24;6.00;;;4.50;;
8337;SDS011;4206;48.634;9.516;2022-10-04T03:38:52;6.33;;;4.77;;
8337;SDS011;4206;48.634;9.516;2022-10-04T03:41:20;4.80;;;3.80;;
8337;SDS011;4206;48.634;9.516;2022-10-04T03:43:49;5.53;;;4.67;;
8337;SDS011;4206;48.634;9.516;2022-10-04T03:46:17;5.80;;;4.30;;
8337;SDS011;4206;48.634;9.516;2022-10-04T03:48:45;6.20;;;3.90;;
8337;SDS011;4206;48.634;9.516;2022-10-04T03:51:15;6.70;;;4.83;;
8337;SDS011;4206;48.634;9.516;2022-10-04T03:53:44;5.93;;;4.00;;
8337;SDS011;4206;48.634;9.516;2022-10-04T03:56:16;5.67;;;4.47;;
8337;SDS011;4206;48.634;9.516;2022-10-04T03:58:44;8.17;;;4.73;;
8337;SDS011;4206;48.634;9.516;2022-10-04T04:03:47;8.93;;;4.80;;
8337;SDS011;4206;48.634;9.516;2022-10-04T04:06:16;6.00;;;3.80;;
8337;SDS011;4206;48.634;9.516;2022-10-04T04:08:44;5.30;;;4.23;;
8337;SDS011;4206;48.634;9.516;2022-10-04T04:11:17;8.80;;;5.73;;
8337;SDS011;4206;48.634;9.516;2022-10-04T04:14:00;8.50;;;5.10;;
8337;SDS011;4206;48.634;9.516;2022-10-04T04:16:32;10.43;;;5.40;;
8337;SDS011;4206;48.634;9.516;2022-10-04T04:19:01;11.23;;;6.57;;
8337;SDS011;4206;48.634;9.516;2022-10-04T04:21:28;7.30;;;5.90;;
8337;SDS011;4206;48.634;9.516;2022-10-04T04:23:57;9.17;;;6.20;;
8337;SDS011;4206;48.634;9.516;2022-10-04T04:31:43;19.20;;;7.13;;
8337;SDS011;4206;48.634;9.516;2022-10-04T04:36:46;28.23;;;6.83;;
8337;SDS011;4206;48.634;9.516;2022-10-04T04:41:55;12.20;;;6.03;;
8337;SDS011;4206;48.634;9.516;2022-10-04T04:44:20;11.07;;;5.77;;
8337;SDS011;4206;48.634;9.516;2022-10-04T04:46:47;11.63;;;6.43;;
8337;SDS011;4206;48.634;9.516;2022-10-04T04:49:14;13.27;;;7.20;;
8337;SDS011;4206;48.634;9.516;2022-10-04T04:51:45;18.40;;;6.13;;
8337;SDS011;4206;48.634;9.516;2022-10-04T04:54:15;13.77;;;6.63;;
8337;SDS011;4206;48.634;9.516;2022-10-04T04:56:45;10.60;;;6.60;;
8337;SDS011;4206;48.634;9.516;2022-10-04T04:59:13;11.37;;;6.10;;
8337;SDS011;4206;48.634;9.516;2022-10-04T05:01:42;8.40;;;5.97;;
8337;SDS011;4206;48.634;9.516;2022-10-04T05:06:37;11.90;;;6.87;;
8337;SDS011;4206;48.634;9.516;2022-10-04T05:09:05;14.87;;;6.57;;
8337;SDS011;4206;48.634;9.516;2022-10-04T05:11:46;12.40;;;5.67;;
8337;SDS011;4206;48.634;9.516;2022-10-04T05:14:13;14.60;;;6.27;;
8337;SDS011;4206;48.634;9.516;2022-10-04T05:16:43;12.63;;;6.67;;
8337;SDS011;4206;48.634;9.516;2022-10-04T05:19:14;9.63;;;5.57;;
8337;SDS011;4206;48.634;9.516;2022-10-04T05:21:45;12.47;;;6.73;;
8337;SDS011;4206;48.634;9.516;2022-10-04T05:24:25;10.13;;;5.63;;
8337;SDS011;4206;48.634;9.516;2022-10-04T05:26:52;13.33;;;6.40;;
8337;SDS011;4206;48.634;9.516;2022-10-04T05:29:25;11.57;;;6.80;;
8337;SDS011;4206;48.634;9.516;2022-10-04T05:44:27;13.97;;;6.30;;
8337;SDS011;4206;48.634;9.516;2022-10-04T05:46:55;10.77;;;5.47;;
8337;SDS011;4206;48.634;9.516;2022-10-04T05:49:24;9.23;;;5.40;;
8337;SDS011;4206;48.634;9.516;2022-10-04T05:51:53;7.43;;;5.10;;
8337;SDS011;4206;48.634;9.516;2022-10-04T05:54:25;6.93;;;5.10;;
8337;SDS011;4206;48.634;9.516;2022-10-04T05:59:53;8.60;;;6.13;;
8337;SDS011;4206;48.634;9.516;2022-10-04T06:11:02;14.23;;;7.50;;
8337;SDS011;4206;48.634;9.516;2022-10-04T06:16:20;30.80;;;7.67;;
8337;SDS011;4206;48.634;9.516;2022-10-04T06:19:26;20.43;;;6.70;;
8337;SDS011;4206;48.634;9.516;2022-10-04T06:24:40;20.13;;;6.27;;
8337;SDS011;4206;48.634;9.516;2022-10-04T06:27:11;25.53;;;7.10;;
8337;SDS011;4206;48.634;9.516;2022-10-04T06:29:41;38.43;;;6.00;;
8337;SDS011;4206;48.634;9.516;2022-10-04T06:37:17;11.37;;;7.30;;
8337;SDS011;4206;48.634;9.516;2022-10-04T06:48:37;13.03;;;5.27;;
8337;SDS011;4206;48.634;9.516;2022-10-04T06:57:07;11.63;;;5.43;;
8337;SDS011;4206;48.634;9.516;2022-10-04T06:59:45;7.07;;;5.00;;
8337;SDS011;4206;48.634;9.516;2022-10-04T07:02:24;9.80;;;5.83;;
8337;SDS011;4206;48.634;9.516;2022-10-04T07:04:57;8.83;;;5.00;;
8337;SDS011;4206;48.634;9.516;2022-10-04T07:15:54;7.27;;;5.30;;
8337;SDS011;4206;48.634;9.516;2022-10-04T07:18:33;6.30;;;5.70;;
8337;SDS011;4206;48.634;9.516;2022-10-04T07:21:07;8.20;;;7.40;;
8337;SDS011;4206;48.634;9.516;2022-10-04T07:26:28;7.20;;;5.37;;
8337;SDS011;4206;48.634;9.516;2022-10-04T07:29:02;17.33;;;6.73;;
8337;SDS011;4206;48.634;9.516;2022-10-04T07:34:29;7.67;;;5.60;;
8337;SDS011;4206;48.634;9.516;2022-10-04T07:37:09;7.70;;;6.23;;
8337;SDS011;4206;48.634;9.516;2022-10-04T07:45:02;12.07;;;6.00;;
8337;SDS011;4206;48.634;9.516;2022-10-04T07:47:30;8.37;;;6.10;;
8337;SDS011;4206;48.634;9.516;2022-10-04T07:49:56;7.83;;;5.43;;
8337;SDS011;4206;48.634;9.516;2022-10-04T07:57:49;4.03;;;3.63;;
8337;SDS011;4206;48.634;9.516;2022-10-04T08:21:31;7.30;;;5.40;;
8337;SDS011;4206;48.634;9.516;2022-10-04T08:24:10;8.40;;;5.03;;
8337;SDS011;4206;48.634;9.516;2022-10-04T08:26:47;11.40;;;4.73;;
8337;SDS011;4206;48.634;9.516;2022-10-04T08:29:23;12.37;;;5.00;;
8337;SDS011;4206;48.634;9.516;2022-10-04T08:37:31;7.00;;;4.90;;
8337;SDS011;4206;48.634;9.516;2022-10-04T08:45:36;15.93;;;5.80;;
8337;SDS011;4206;48.634;9.516;2022-10-04T09:03:34;9.03;;;5.30;;
8337;SDS011;4206;48.634;9.516;2022-10-04T09:06:20;6.03;;;4.23;;
8337;SDS011;4206;48.634;9.516;2022-10-04T09:14:32;5.50;;;4.43;;
8337;SDS011;4206;48.634;9.516;2022-10-04T09:17:21;5.60;;;4.20;;
8337;SDS011;4206;48.634;9.516;2022-10-04T09:19:55;5.30;;;4.10;;
8337;SDS011;4206;48.634;9.516;2022-10-04T09:50:15;11.37;;;5.80;;
8337;SDS011;4206;48.634;9.516;2022-10-04T10:01:31;10.77;;;5.50;;
8337;SDS011;4206;48.634;9.516;2022-10-04T10:51:50;5.00;;;2.73;;
8337;SDS011;4206;48.634;9.516;2022-10-04T10:57:13;5.80;;;3.20;;
8337;SDS011;4206;48.634;9.516;2022-10-04T10:59:53;6.00;;;2.87;;
8337;SDS011;4206;48.634;9.516;2022-10-04T11:07:52;4.43;;;2.70;;
8337;SDS011;4206;48.634;9.516;2022-10-04T11:15:31;3.57;;;2.40;;
8337;SDS011;4206;48.634;9.516;2022-10-04T11:20:54;5.77;;;2.60;;
8337;SDS011;4206;48.634;9.516;2022-10-04T11:28:56;6.87;;;2.80;;
8337;SDS011;4206;48.634;9.516;2022-10-04T11:31:37;10.97;;;2.60;;
8337;SDS011;4206;48.634;9.516;2022-10-04T11:42:15;3.73;;;2.40;;
8337;SDS011;4206;48.634;9.516;2022-10-04T11:47:47;4.00;;;1.60;;
8337;SDS011;4206;48.634;9.516;2022-10-04T12:01:26;7.87;;;1.83;;
8337;SDS011;4206;48.634;9.516;2022-10-04T12:04:07;4.50;;;1.80;;
8337;SDS011;4206;48.634;9.516;2022-10-04T12:15:05;3.50;;;1.80;;
8337;SDS011;4206;48.634;9.516;2022-10-04T12:31:18;2.70;;;1.40;;
8337;SDS011;4206;48.634;9.516;2022-10-04T12:34:10;2.50;;;1.57;;
8337;SDS011;4206;48.634;9.516;2022-10-04T12:36:54;2.63;;;1.27;;
8337;SDS011;4206;48.634;9.516;2022-10-04T12:53:05;2.63;;;1.30;;
8337;SDS011;4206;48.634;9.516;2022-10-04T12:58:24;4.57;;;1.77;;
8337;SDS011;4206;48.634;9.516;2022-10-04T13:00:58;4.20;;;1.70;;
8337;SDS011;4206;48.634;9.516;2022-10-04T13:06:47;3.23;;;1.00;;
8337;SDS011;4206;48.634;9.516;2022-10-04T13:09:28;3.40;;;1.50;;
8337;SDS011;4206;48.634;9.516;2022-10-04T13:12:02;1.38;;;1.27;;
8337;SDS011;4206;48.634;9.516;2022-10-04T13:39:00;2.55;;;1.25;;
8337;SDS011;4206;48.634;9.516;2022-10-04T13:58:47;2.33;;;1.30;;
8337;SDS011;4206;48.634;9.516;2022-10-04T14:01:20;2.75;;;1.40;;
8337;SDS011;4206;48.634;9.516;2022-10-04T14:17:22;3.08;;;1.17;;
8337;SDS011;4206;48.634;9.516;2022-10-04T14:28:15;3.05;;;1.60;;
8337;SDS011;4206;48.634;9.516;2022-10-04T14:47:09;3.47;;;1.40;;
8337;SDS011;4206;48.634;9.516;2022-10-04T14:49:43;2.10;;;1.48;;
8337;SDS011;4206;48.634;9.516;2022-10-04T14:58:13;1.50;;;1.05;;
8337;SDS011;4206;48.634;9.516;2022-10-04T15:00:56;4.00;;;1.77;;
8337;SDS011;4206;48.634;9.516;2022-10-04T15:06:17;1.50;;;1.23;;
8337;SDS011;4206;48.634;9.516;2022-10-04T15:11:49;2.20;;;1.50;;
8337;SDS011;4206;48.634;9.516;2022-10-04T15:14:26;3.27;;;1.63;;
8337;SDS011;4206;48.634;9.516;2022-10-04T15:17:01;7.83;;;1.70;;
8337;SDS011;4206;48.634;9.516;2022-10-04T15:19:33;2.00;;;1.33;;
8337;SDS011;4206;48.634;9.516;2022-10-04T15:22:25;3.90;;;1.47;;
8337;SDS011;4206;48.634;9.516;2022-10-04T15:24:55;2.30;;;1.20;;
8337;SDS011;4206;48.634;9.516;2022-10-04T15:32:55;4.50;;;2.10;;
8337;SDS011;4206;48.634;9.516;2022-10-04T15:38:14;3.10;;;1.83;;
8337;SDS011;4206;48.634;9.516;2022-10-04T15:43:24;3.80;;;1.20;;
8337;SDS011;4206;48.634;9.516;2022-10-04T15:48:36;5.53;;;1.60;;
8337;SDS011;4206;48.634;9.516;2022-10-04T16:06:59;7.43;;;1.90;;
8337;SDS011;4206;48.634;9.516;2022-10-04T16:18:05;6.40;;;1.90;;
8337;SDS011;4206;48.634;9.516;2022-10-04T16:20:58;4.20;;;1.77;;
8337;SDS011;4206;48.634;9.516;2022-10-04T16:25:56;3.37;;;1.60;;
8337;SDS011;4206;48.634;9.516;2022-10-04T16:50:12;4.87;;;1.90;;
8337;SDS011;4206;48.634;9.516;2022-10-04T16:53:01;4.70;;;2.70;;
8337;SDS011;4206;48.634;9.516;2022-10-04T17:03:48;6.27;;;2.87;;
8337;SDS011;4206;48.634;9.516;2022-10-04T17:06:15;4.20;;;2.50;;
8337;SDS011;4206;48.634;9.516;2022-10-04T17:14:31;6.50;;;2.53;;
8337;SDS011;4206;48.634;9.516;2022-10-04T17:17:00;6.57;;;3.27;;
8337;SDS011;4206;48.634;9.516;2022-10-04T17:19:37;4.33;;;2.03;;
8337;SDS011;4206;48.634;9.516;2022-10-04T17:24:53;4.27;;;2.03;;
8337;SDS011;4206;48.634;9.516;2022-10-04T17:30:14;3.43;;;2.77;;
8337;SDS011;4206;48.634;9.516;2022-10-04T17:37:51;3.43;;;2.33;;
8337;SDS011;4206;48.634;9.516;2022-10-04T17:43:03;2.10;;;1.53;;
8337;SDS011;4206;48.634;9.516;2022-10-04T17:48:04;4.13;;;2.20;;
8337;SDS011;4206;48.634;9.516;2022-10-04T17:53:36;2.77;;;2.30;;
8337;SDS011;4206;48.634;9.516;2022-10-04T17:56:29;5.73;;;4.50;;
8337;SDS011;4206;48.634;9.516;2022-10-04T17:59:00;2.50;;;2.00;;
8337;SDS011;4206;48.634;9.516;2022-10-04T18:01:44;3.67;;;3.03;;
8337;SDS011;4206;48.634;9.516;2022-10-04T18:04:20;4.27;;;1.97;;
8337;SDS011;4206;48.634;9.516;2022-10-04T18:11:54;2.70;;;2.50;;
8337;SDS011;4206;48.634;9.516;2022-10-04T18:16:59;4.13;;;2.37;;
8337;SDS011;4206;48.634;9.516;2022-10-04T18:19:30;4.60;;;2.50;;
8337;SDS011;4206;48.634;9.516;2022-10-04T18:22:03;5.80;;;2.83;;
8337;SDS011;4206;48.634;9.516;2022-10-04T18:24:38;5.57;;;3.17;;
8337;SDS011;4206;48.634;9.516;2022-10-04T18:29:55;4.57;;;2.87;;
8337;SDS011;4206;48.634;9.516;2022-10-04T18:32:34;6.90;;;2.73;;
8337;SDS011;4206;48.634;9.516;2022-10-04T18:35:16;4.80;;;2.87;;
8337;SDS011;4206;48.634;9.516;2022-10-04T18:37:46;5.70;;;2.90;;
8337;SDS011;4206;48.634;9.516;2022-10-04T18:40:16;5.23;;;2.80;;
8337;SDS011;4206;48.634;9.516;2022-10-04T18:42:58;3.03;;;2.70;;
8337;SDS011;4206;48.634;9.516;2022-10-04T18:45:27;4.20;;;2.77;;
8337;SDS011;4206;48.634;9.516;2022-10-04T18:47:55;5.00;;;2.90;;
8337;SDS011;4206;48.634;9.516;2022-10-04T18:55:47;5.30;;;3.00;;
8337;SDS011;4206;48.634;9.516;2022-10-04T19:07:10;3.70;;;2.63;;
8337;SDS011;4206;48.634;9.516;2022-10-04T19:09:44;3.83;;;2.07;;
8337;SDS011;4206;48.634;9.516;2022-10-04T19:12:15;5.83;;;2.77;;
8337;SDS011;4206;48.634;9.516;2022-10-04T19:14:57;5.20;;;2.90;;
8337;SDS011;4206;48.634;9.516;2022-10-04T19:17:30;2.93;;;2.40;;
8337;SDS011;4206;48.634;9.516;2022-10-04T19:20:01;3.50;;;3.10;;
8337;SDS011;4206;48.634;9.516;2022-10-04T19:28:16;2.63;;;2.17;;
8337;SDS011;4206;48.634;9.516;2022-10-04T19:33:33;6.23;;;2.93;;
8337;SDS011;4206;48.634;9.516;2022-10-04T19:41:25;5.20;;;2.77;;
8337;SDS011;4206;48.634;9.516;2022-10-04T19:43:56;4.67;;;3.40;;
8337;SDS011;4206;48.634;9.516;2022-10-04T19:46:35;6.13;;;3.23;;
8337;SDS011;4206;48.634;9.516;2022-10-04T19:49:07;9.50;;;3.60;;
8337;SDS011;4206;48.634;9.516;2022-10-04T19:51:46;4.00;;;3.20;;
8337;SDS011;4206;48.634;9.516;2022-10-04T19:54:17;9.80;;;4.83;;
8337;SDS011;4206;48.634;9.516;2022-10-04T19:56:50;7.77;;;5.13;;
8337;SDS011;4206;48.634;9.516;2022-10-04T19:59:24;8.27;;;4.93;;
8337;SDS011;4206;48.634;9.516;2022-10-04T20:01:59;3.20;;;2.90;;
8337;SDS011;4206;48.634;9.516;2022-10-04T20:04:25;6.37;;;4.20;;
8337;SDS011;4206;48.634;9.516;2022-10-04T20:06:59;7.07;;;3.70;;
8337;SDS011;4206;48.634;9.516;2022-10-04T20:09:32;5.30;;;3.77;;
8337;SDS011;4206;48.634;9.516;2022-10-04T20:12:31;4.70;;;3.07;;
8337;SDS011;4206;48.634;9.516;2022-10-04T20:17:41;5.13;;;3.30;;
8337;SDS011;4206;48.634;9.516;2022-10-04T20:20:09;5.73;;;3.83;;
8337;SDS011;4206;48.634;9.516;2022-10-04T20:33:54;7.77;;;3.87;;
8337;SDS011;4206;48.634;9.516;2022-10-04T20:39:53;4.33;;;3.80;;
8337;SDS011;4206;48.634;9.516;2022-10-04T20:52:42;23.00;;;10.20;;
8337;SDS011;4206;48.634;9.516;2022-10-04T20:55:14;18.57;;;8.20;;
8337;SDS011;4206;48.634;9.516;2022-10-04T20:57:44;15.83;;;8.10;;
8337;SDS011;4206;48.634;9.516;2022-10-04T21:00:17;24.60;;;12.60;;
8337;SDS011;4206;48.634;9.516;2022-10-04T21:02:45;31.13;;;16.17;;
8337;SDS011;4206;48.634;9.516;2022-10-04T21:05:14;29.43;;;15.43;;
8337;SDS011;4206;48.634;9.516;2022-10-04T21:07:48;24.90;;;13.33;;
8337;SDS011;4206;48.634;9.516;2022-10-04T21:10:33;20.50;;;10.43;;
8337;SDS011;4206;48.634;9.516;2022-10-04T21:12:59;25.40;;;11.90;;
8337;SDS011;4206;48.634;9.516;2022-10-04T21:15:25;23.53;;;9.97;;
8337;SDS011;4206;48.634;9.516;2022-10-04T21:17:59;17.60;;;10.40;;
8337;SDS011;4206;48.634;9.516;2022-10-04T21:23:18;22.73;;;9.83;;
8337;SDS011;4206;48.634;9.516;2022-10-04T21:26:16;21.50;;;11.30;;
8337;SDS011;4206;48.634;9.516;2022-10-04T21:28:51;11.00;;;5.23;;
8337;SDS011;4206;48.634;9.516;2022-10-04T21:31:20;7.80;;;4.00;;
8337;SDS011;4206;48.634;9.516;2022-10-04T21:33:46;7.73;;;4.80;;
8337;SDS011;4206;48.634;9.516;2022-10-04T21:36:12;6.63;;;4.17;;
8337;SDS011;4206;48.634;9.516;2022-10-04T21:38:38;4.23;;;3.50;;
8337;SDS011;4206;48.634;9.516;2022-10-04T21:41:04;5.03;;;3.63;;
8337;SDS011;4206;48.634;9.516;2022-10-04T21:43:29;6.63;;;4.23;;
8337;SDS011;4206;48.634;9.516;2022-10-04T21:45:55;7.10;;;3.87;;
8337;SDS011;4206;48.634;9.516;2022-10-04T21:48:21;4.80;;;3.90;;
8337;SDS011;4206;48.634;9.516;2022-10-04T21:50:48;6.40;;;4.10;;
8337;SDS011;4206;48.634;9.516;2022-10-04T21:53:15;5.23;;;3.93;;
8337;SDS011;4206;48.634;9.516;2022-10-04T21:55:41;7.80;;;4.73;;
8337;SDS011;4206;48.634;9.516;2022-10-04T21:58:06;11.33;;;6.20;;
8337;SDS011;4206;48.634;9.516;2022-10-04T22:00:32;5.87;;;4.43;;
8337;SDS011;4206;48.634;9.516;2022-10-04T22:02:58;5.10;;;3.47;;
8337;SDS011;4206;48.634;9.516;2022-10-04T22:05:24;4.87;;;3.67;;
8337;SDS011;4206;48.634;9.516;2022-10-04T22:07:50;4.73;;;3.57;;
8337;SDS011;4206;48.634;9.516;2022-10-04T22:10:15;9.10;;;3.80;;
8337;SDS011;4206;48.634;9.516;2022-10-04T22:12:41;7.13;;;3.80;;
8337;SDS011;4206;48.634;9.516;2022-10-04T22:15:07;3.90;;;3.07;;
8337;SDS011;4206;48.634;9.516;2022-10-04T22:17:33;5.60;;;3.60;;
8337;SDS011;4206;48.634;9.516;2022-10-04T22:19:58;6.87;;;4.00;;
8337;SDS011;4206;48.634;9.516;2022-10-04T22:22:24;5.50;;;3.70;;
8337;SDS011;4206;48.634;9.516;2022-10-04T22:24:52;4.37;;;3.57;;
8337;SDS011;4206;48.634;9.516;2022-10-04T22:27:18;6.73;;;3.77;;
8337;SDS011;4206;48.634;9.516;2022-10-04T22:29:44;5.93;;;3.93;;
8337;SDS011;4206;48.634;9.516;2022-10-04T22:32:11;4.13;;;3.33;;
8337;SDS011;4206;48.634;9.516;2022-10-04T22:34:43;4.33;;;3.30;;
8337;SDS011;4206;48.634;9.516;2022-10-04T22:37:09;9.37;;;4.47;;
8337;SDS011;4206;48.634;9.516;2022-10-04T22:39:36;5.57;;;3.50;;
8337;SDS011;4206;48.634;9.516;2022-10-04T22:42:02;6.20;;;3.70;;
8337;SDS011;4206;48.634;9.516;2022-10-04T22:44:29;5.40;;;3.33;;
8337;SDS011;4206;48.634;9.516;2022-10-04T22:46:59;3.97;;;3.57;;
8337;SDS011;4206;48.634;9.516;2022-10-04T22:49:28;7.30;;;3.40;;
8337;SDS011;4206;48.634;9.516;2022-10-04T22:51:56;5.60;;;3.37;;
8337;SDS011;4206;48.634;9.516;2022-10-04T22:54:25;6.20;;;4.10;;
8337;SDS011;4206;48.634;9.516;2022-10-04T22:56:55;4.07;;;3.67;;
8337;SDS011;4206;48.634;9.516;2022-10-04T22:59:21;4.57;;;3.40;;
8337;SDS011;4206;48.634;9.516;2022-10-04T23:01:50;7.00;;;3.40;;
8337;SDS011;4206;48.634;9.516;2022-10-04T23:04:19;5.93;;;4.47;;
8337;SDS011;4206;48.634;9.516;2022-10-04T23:06:47;5.53;;;3.87;;
8337;SDS011;4206;48.634;9.516;2022-10-04T23:09:13;6.30;;;4.90;;
8337;SDS011;4206;48.634;9.516;2022-10-04T23:11:38;12.50;;;4.33;;
8337;SDS011;4206;48.634;9.516;2022-10-04T23:14:04;4.30;;;3.63;;
8337;SDS011;4206;48.634;9.516;2022-10-04T23:16:30;4.57;;;3.73;;
8337;SDS011;4206;48.634;9.516;2022-10-04T23:19:00;4.70;;;3.40;;
8337;SDS011;4206;48.634;9.516;2022-10-04T23:21:33;6.10;;;3.47;;
8337;SDS011;4206;48.634;9.516;2022-10-04T23:26:45;6.50;;;3.53;;
8337;SDS011;4206;48.634;9.516;2022-10-04T23:29:16;6.40;;;3.40;;
8337;SDS011;4206;48.634;9.516;2022-10-04T23:31:45;5.80;;;3.97;;
8337;SDS011;4206;48.634;9.516;2022-10-04T23:34:15;6.13;;;4.20;;
8337;SDS011;4206;48.634;9.516;2022-10-04T23:36:46;10.03;;;3.37;;
8337;SDS011;4206;48.634;9.516;2022-10-04T23:39:15;11.23;;;5.13;;
8337;SDS011;4206;48.634;9.516;2022-10-04T23:41:47;5.00;;;3.57;;
8337;SDS011;4206;48.634;9.516;2022-10-04T23:44:13;4.40;;;3.97;;
8337;SDS011;4206;48.634;9.516;2022-10-04T23:46:40;10.50;;;4.37;;
8337;SDS011;4206;48.634;9.516;2022-10-04T23:49:08;5.40;;;3.87;;
8337;SDS011;4206;48.634;9.516;2022-10-04T23:51:39;8.13;;;5.10;;
8337;SDS011;4206;48.634;9.516;2022-10-04T23:54:07;5.90;;;4.10;;
8337;SDS011;4206;48.634;9.516;2022-10-04T23:56:36;7.90;;;4.07;;
8337;SDS011;4206;48.634;9.516;2022-10-04T23:59:01;5.40;;;4.70;;
